Time;durP1;ratioP1;P1;durP2;ratioP2;P2;SDS_P1;SDS_P2;PMS_P1;PMS_P2;Temp;Humidity;BMP_temperature;BMP_pressure;BME280_temperature;BME280_humidity;BME280_pressure;Samples;Min_cycle;Max_cycle;Signal;HPM_P1;HPM_P2
2022/01/17 00:00:44;;;;;;;37.17;18.07;;;4.10;80.60;;;;;;5101820;28;20205;-74
2022/01/17 00:03:13;;;;;;;40.53;17.90;;;4.10;81.20;;;;;;5096964;28;20201;-74
2022/01/17 00:05:43;;;;;;;39.30;19.00;;;4.00;81.30;;;;;;5090170;28;20792;-75
2022/01/17 00:08:11;;;;;;;39.20;17.63;;;4.00;81.30;;;;;;5102392;28;20222;-74
2022/01/17 00:10:39;;;;;;;41.20;18.67;;;4.00;81.50;;;;;;5099164;28;20218;-74
2022/01/17 00:13:10;;;;;;;43.47;17.77;;;4.00;81.60;;;;;;5101042;28;20574;-74
2022/01/17 00:15:47;;;;;;;33.20;16.80;;;4.00;81.80;;;;;;5099405;27;20182;-74
2022/01/17 00:18:29;;;;;;;36.90;18.17;;;4.00;81.80;;;;;;5101745;28;20687;-74
2022/01/17 00:20:59;;;;;;;37.30;18.40;;;3.90;82.00;;;;;;5096632;28;20198;-74
2022/01/17 00:23:27;;;;;;;35.77;17.30;;;4.00;82.10;;;;;;5100662;28;20189;-75
2022/01/17 00:25:56;;;;;;;35.57;17.90;;;3.90;82.50;;;;;;5097013;28;20262;-74
2022/01/17 00:28:24;;;;;;;38.20;19.20;;;3.90;82.90;;;;;;5098049;28;20196;-74
2022/01/17 00:30:52;;;;;;;35.87;18.53;;;3.90;82.70;;;;;;5100367;28;20215;-75
2022/01/17 00:33:21;;;;;;;36.17;18.53;;;4.00;82.70;;;;;;5101265;28;20192;-74
2022/01/17 00:35:49;;;;;;;40.77;17.77;;;4.00;83.00;;;;;;5099089;28;20876;-75
2022/01/17 00:38:19;;;;;;;39.53;19.83;;;4.00;83.00;;;;;;5102691;28;20197;-74
2022/01/17 00:40:47;;;;;;;38.03;18.50;;;4.00;83.00;;;;;;5102276;28;20201;-74
2022/01/17 00:43:16;;;;;;;41.03;18.27;;;4.00;83.80;;;;;;5098188;28;20204;-74
2022/01/17 00:45:45;;;;;;;37.20;18.67;;;4.00;83.00;;;;;;5091192;28;20245;-75
2022/01/17 00:48:13;;;;;;;37.97;18.80;;;4.00;83.10;;;;;;5100618;28;20191;-74
2022/01/17 00:50:42;;;;;;;36.83;18.70;;;4.00;83.10;;;;;;5100283;28;20207;-75
2022/01/17 00:53:10;;;;;;;40.63;18.00;;;4.00;83.10;;;;;;5100490;28;20199;-75
2022/01/17 00:55:41;;;;;;;39.17;18.20;;;4.10;83.00;;;;;;5095616;28;20839;-77
2022/01/17 00:58:10;;;;;;;37.47;17.83;;;4.00;83.00;;;;;;5098212;28;20212;-75
2022/01/17 01:00:40;;;;;;;35.07;18.10;;;4.10;83.10;;;;;;5096905;28;20196;-75
2022/01/17 01:03:09;;;;;;;38.60;17.93;;;4.10;83.00;;;;;;5099459;28;20195;-75
2022/01/17 01:05:38;;;;;;;33.13;17.10;;;4.20;82.90;;;;;;5101256;28;20189;-75
2022/01/17 01:08:06;;;;;;;38.30;19.67;;;4.20;83.00;;;;;;5099287;28;20439;-75
2022/01/17 01:10:35;;;;;;;38.50;18.77;;;4.20;82.90;;;;;;5100708;28;20573;-75
2022/01/17 01:13:04;;;;;;;43.87;18.97;;;4.20;83.00;;;;;;5102063;28;20238;-75
2022/01/17 01:15:46;;;;;;;35.37;18.50;;;4.20;82.80;;;;;;5100264;28;20202;-75
2022/01/17 01:18:17;;;;;;;35.90;16.87;;;4.20;83.00;;;;;;5098667;28;20196;-75
2022/01/17 01:21:34;;;;;;;37.50;18.30;;;4.20;82.80;;;;;;5096684;28;20199;-75
2022/01/17 01:29:32;;;;;;;39.40;18.23;;;4.20;82.80;;;;;;5098328;28;20205;-75
2022/01/17 01:32:04;;;;;;;38.23;18.43;;;4.20;83.00;;;;;;5109839;28;20192;-75
2022/01/17 01:34:36;;;;;;;44.20;19.17;;;4.10;83.10;;;;;;5104723;28;20618;-74
2022/01/17 01:37:05;;;;;;;36.87;17.97;;;4.10;83.00;;;;;;5095953;28;20217;-74
2022/01/17 01:39:35;;;;;;;42.77;19.73;;;4.10;83.00;;;;;;5096752;28;20194;-74
2022/01/17 01:42:04;;;;;;;39.80;18.80;;;4.10;83.00;;;;;;5096199;28;20186;-75
2022/01/17 01:44:34;;;;;;;40.23;18.97;;;4.10;83.00;;;;;;5099794;28;20197;-75
2022/01/17 01:47:02;;;;;;;35.97;17.97;;;4.10;83.10;;;;;;5099435;28;20187;-75
2022/01/17 01:49:30;;;;;;;44.17;20.70;;;4.10;83.10;;;;;;5102331;28;20186;-75
2022/01/17 01:51:59;;;;;;;49.07;20.00;;;4.00;83.90;;;;;;5103756;28;20190;-75
2022/01/17 01:54:27;;;;;;;38.37;19.53;;;4.00;83.30;;;;;;5099603;28;20255;-74
2022/01/17 01:56:55;;;;;;;37.93;18.43;;;4.00;83.20;;;;;;5100779;28;20202;-74
2022/01/17 01:59:24;;;;;;;43.37;18.63;;;4.00;83.30;;;;;;5100320;28;20204;-74
2022/01/17 02:01:54;;;;;;;37.13;17.77;;;4.00;83.20;;;;;;5099903;28;20197;-74
2022/01/17 02:04:23;;;;;;;40.60;19.20;;;4.00;83.40;;;;;;5097933;28;20566;-74
2022/01/17 02:06:51;;;;;;;39.80;18.73;;;4.00;83.30;;;;;;5099912;28;20197;-75
2022/01/17 02:09:19;;;;;;;44.10;19.07;;;4.00;83.60;;;;;;5099235;28;20193;-74
2022/01/17 02:11:47;;;;;;;41.50;19.70;;;3.90;83.70;;;;;;5101318;28;20305;-74
2022/01/17 02:14:16;;;;;;;33.83;17.33;;;3.90;84.00;;;;;;5097640;28;20201;-75
2022/01/17 02:16:47;;;;;;;38.37;18.83;;;3.80;84.30;;;;;;5101999;28;20183;-75
2022/01/17 02:19:20;;;;;;;38.83;18.67;;;3.80;84.40;;;;;;5105400;28;20189;-75
2022/01/17 02:21:50;;;;;;;37.00;18.03;;;3.90;84.20;;;;;;5105521;28;20202;-75
2022/01/17 02:24:21;;;;;;;42.27;18.27;;;3.80;84.20;;;;;;5105209;28;20240;-75
2022/01/17 02:26:51;;;;;;;40.10;17.90;;;3.90;84.10;;;;;;5105072;28;20236;-75
2022/01/17 02:29:19;;;;;;;33.97;17.33;;;3.90;84.10;;;;;;5102517;28;20195;-75
2022/01/17 02:31:49;;;;;;;38.33;17.17;;;3.90;83.90;;;;;;5102842;28;20271;-74
2022/01/17 02:34:17;;;;;;;35.00;18.13;;;3.90;83.90;;;;;;5100499;28;20811;-74
2022/01/17 02:36:46;;;;;;;33.77;17.47;;;3.90;84.00;;;;;;5101909;28;20269;-75
2022/01/17 02:39:17;;;;;;;33.93;17.90;;;3.90;83.80;;;;;;5103765;28;20207;-75
2022/01/17 02:41:49;;;;;;;38.60;17.37;;;3.90;83.80;;;;;;5103586;28;20786;-74
2022/01/17 02:44:18;;;;;;;40.53;17.37;;;3.90;83.80;;;;;;5102283;28;20660;-75
2022/01/17 02:46:46;;;;;;;34.60;17.93;;;3.90;83.70;;;;;;5098845;28;20252;-74
2022/01/17 02:49:14;;;;;;;40.53;18.40;;;3.90;83.70;;;;;;5103686;28;20194;-74
2022/01/17 02:51:44;;;;;;;34.63;17.83;;;3.90;83.70;;;;;;5098750;28;20211;-74
2022/01/17 02:54:12;;;;;;;35.73;17.93;;;3.90;83.70;;;;;;5103383;28;20193;-74
2022/01/17 02:56:42;;;;;;;37.97;17.83;;;3.90;83.60;;;;;;5103275;28;20221;-74
2022/01/17 02:59:10;;;;;;;37.97;16.77;;;3.90;84.40;;;;;;5096140;28;20195;-74
2022/01/17 03:01:39;;;;;;;37.33;18.50;;;3.90;83.60;;;;;;5103453;28;20194;-75
2022/01/17 03:04:07;;;;;;;32.50;16.57;;;3.90;83.60;;;;;;5102107;28;20281;-74
2022/01/17 03:06:35;;;;;;;31.40;17.47;;;3.90;83.60;;;;;;5103213;28;20647;-74
2022/01/17 03:09:04;;;;;;;36.30;17.33;;;3.90;84.40;;;;;;5101688;28;20230;-75
2022/01/17 03:11:32;;;;;;;32.37;17.10;;;3.90;83.70;;;;;;5102274;28;20213;-75
2022/01/17 03:14:02;;;;;;;34.33;15.77;;;3.90;83.70;;;;;;5104142;28;20195;-75
2022/01/17 03:16:34;;;;;;;32.97;16.67;;;3.90;83.70;;;;;;5103780;28;20698;-75
2022/01/17 03:19:02;;;;;;;34.97;17.07;;;3.90;83.90;;;;;;5098693;28;20762;-75
2022/01/17 03:21:32;;;;;;;32.50;16.30;;;3.90;83.90;;;;;;5100517;28;20195;-74
2022/01/17 03:24:00;;;;;;;29.63;16.57;;;3.80;83.80;;;;;;5103807;28;20209;-74
2022/01/17 03:26:30;;;;;;;38.57;16.73;;;3.90;83.70;;;;;;5104430;28;20202;-74
2022/01/17 03:28:59;;;;;;;34.10;16.57;;;3.80;83.80;;;;;;5102875;28;20201;-75
2022/01/17 03:31:29;;;;;;;30.33;16.27;;;3.80;83.80;;;;;;5100043;28;20229;-75
2022/01/17 03:33:58;;;;;;;32.47;15.33;;;3.80;83.70;;;;;;5100008;28;20194;-74
2022/01/17 03:36:26;;;;;;;32.17;16.03;;;3.90;83.80;;;;;;5104264;28;20214;-74
2022/01/17 03:38:56;;;;;;;32.63;16.40;;;3.80;83.80;;;;;;5100889;28;20204;-75
2022/01/17 03:41:25;;;;;;;33.60;16.50;;;3.80;84.10;;;;;;5098955;27;20685;-75
2022/01/17 03:43:54;;;;;;;33.13;16.40;;;3.80;84.00;;;;;;5096751;27;20880;-74
2022/01/17 03:46:22;;;;;;;32.87;16.13;;;3.90;84.10;;;;;;5103693;28;20752;-74
2022/01/17 03:48:52;;;;;;;31.30;15.83;;;3.80;84.20;;;;;;5102334;28;20284;-75
2022/01/17 03:51:21;;;;;;;31.70;16.30;;;3.80;84.40;;;;;;5100632;28;20280;-74
2022/01/17 03:53:49;;;;;;;34.93;16.60;;;3.80;84.60;;;;;;5100081;28;20191;-75
2022/01/17 03:56:18;;;;;;;31.17;15.37;;;3.80;84.40;;;;;;5103246;28;20208;-74
2022/01/17 03:58:49;;;;;;;27.43;14.40;;;3.80;84.30;;;;;;5104034;28;20190;-74
2022/01/17 04:01:19;;;;;;;30.27;15.57;;;3.80;84.40;;;;;;5100292;28;20194;-74
2022/01/17 04:03:47;;;;;;;33.87;16.50;;;3.80;84.60;;;;;;5101132;28;20280;-75
2022/01/17 04:06:18;;;;;;;31.67;16.03;;;3.80;84.50;;;;;;5098376;28;20199;-75
2022/01/17 04:08:46;;;;;;;35.77;16.13;;;3.80;84.70;;;;;;5098995;28;20195;-74
2022/01/17 04:11:15;;;;;;;35.30;15.43;;;3.80;84.80;;;;;;5097253;28;20586;-75
2022/01/17 04:13:43;;;;;;;32.30;16.10;;;3.80;84.80;;;;;;5093643;28;20197;-74
2022/01/17 04:16:12;;;;;;;30.30;15.67;;;3.80;84.90;;;;;;5099024;28;20251;-75
2022/01/17 04:18:42;;;;;;;26.83;13.80;;;3.70;84.80;;;;;;5102708;28;20218;-75
2022/01/17 04:21:10;;;;;;;35.30;16.70;;;3.70;84.80;;;;;;5104063;28;20239;-75
2022/01/17 04:23:40;;;;;;;32.33;15.77;;;3.70;85.00;;;;;;5101011;28;20195;-75
2022/01/17 04:26:08;;;;;;;28.73;15.50;;;3.70;84.80;;;;;;5098810;28;20199;-75
2022/01/17 04:28:37;;;;;;;29.97;15.17;;;3.70;84.80;;;;;;5097402;28;20197;-74
2022/01/17 04:31:05;;;;;;;31.37;15.77;;;3.70;84.80;;;;;;5101593;28;20219;-74
2022/01/17 04:33:34;;;;;;;33.63;16.73;;;3.70;84.70;;;;;;5101445;28;20470;-75
2022/01/17 04:36:06;;;;;;;32.23;15.33;;;3.70;84.60;;;;;;5101679;28;20271;-74
2022/01/17 04:38:35;;;;;;;35.70;15.67;;;3.70;84.50;;;;;;5101560;28;20601;-75
2022/01/17 04:41:12;;;;;;;33.00;15.80;;;3.70;84.50;;;;;;5101820;28;20264;-75
2022/01/17 04:43:56;;;;;;;29.33;15.37;;;3.70;84.40;;;;;;5095849;28;20602;-75
2022/01/17 04:46:25;;;;;;;30.43;14.73;;;3.70;84.30;;;;;;5097127;28;20195;-74
2022/01/17 04:48:53;;;;;;;31.43;15.03;;;3.70;84.30;;;;;;5101919;28;20200;-75
2022/01/17 04:51:21;;;;;;;35.10;16.57;;;3.60;84.40;;;;;;5099312;28;20229;-75
2022/01/17 04:54:09;;;;;;;31.40;16.90;;;3.60;84.30;;;;;;5100836;28;20598;-75
2022/01/17 04:56:39;;;;;;;33.80;15.67;;;3.60;84.20;;;;;;5094732;28;20202;-75
2022/01/17 04:59:07;;;;;;;35.73;17.13;;;3.60;84.20;;;;;;5096485;28;20197;-74
2022/01/17 05:01:35;;;;;;;32.93;16.27;;;3.60;84.20;;;;;;5100408;28;20934;-75
2022/01/17 05:04:04;;;;;;;38.70;16.60;;;3.60;84.40;;;;;;5094163;28;20190;-74
2022/01/17 05:06:32;;;;;;;41.50;18.53;;;3.60;84.50;;;;;;5095588;28;20194;-74
2022/01/17 05:09:02;;;;;;;30.00;15.33;;;3.50;84.60;;;;;;5099731;28;20196;-75
2022/01/17 05:11:31;;;;;;;34.50;16.17;;;3.50;84.50;;;;;;5102870;28;20204;-74
2022/01/17 05:14:01;;;;;;;30.30;15.37;;;3.60;84.60;;;;;;5101336;28;20274;-75
2022/01/17 05:16:35;;;;;;;37.07;16.43;;;3.50;84.50;;;;;;5103120;28;20189;-75
2022/01/17 05:21:49;;;;;;;35.80;16.70;;;3.50;85.50;;;;;;5099997;28;20204;-75
2022/01/17 05:24:17;;;;;;;33.43;17.53;;;3.50;84.50;;;;;;5099043;28;20190;-75
2022/01/17 05:26:46;;;;;;;36.83;17.20;;;3.50;84.50;;;;;;5096851;28;20197;-75
2022/01/17 05:29:16;;;;;;;39.63;18.23;;;3.40;84.50;;;;;;5097185;27;20189;-74
2022/01/17 05:31:44;;;;;;;36.40;18.97;;;3.40;84.40;;;;;;5098364;28;20210;-75
2022/01/17 05:34:12;;;;;;;34.10;17.67;;;3.40;84.40;;;;;;5099835;28;20771;-75
2022/01/17 05:36:40;;;;;;;36.93;18.97;;;3.40;84.40;;;;;;5100336;28;20213;-74
2022/01/17 05:39:09;;;;;;;34.67;18.93;;;3.40;84.50;;;;;;5100321;28;20284;-74
2022/01/17 05:41:37;;;;;;;35.67;18.43;;;3.40;84.40;;;;;;5100735;28;20199;-75
2022/01/17 05:44:06;;;;;;;36.23;18.33;;;3.40;84.50;;;;;;5097806;28;20700;-75
2022/01/17 05:46:36;;;;;;;38.83;19.77;;;3.40;84.50;;;;;;5099152;28;20191;-76
2022/01/17 05:49:04;;;;;;;36.23;17.77;;;3.40;85.40;;;;;;5098611;28;20207;-75
2022/01/17 05:51:32;;;;;;;47.10;19.93;;;3.40;84.70;;;;;;5095336;28;20200;-75
2022/01/17 05:54:01;;;;;;;41.87;20.03;;;3.40;84.50;;;;;;5099563;28;20647;-76
2022/01/17 05:56:29;;;;;;;37.43;18.30;;;3.40;84.40;;;;;;5095133;28;20205;-75
2022/01/17 05:58:57;;;;;;;37.43;19.73;;;3.40;84.40;;;;;;5097383;28;20276;-74
2022/01/17 06:01:26;;;;;;;39.13;19.63;;;3.40;84.20;;;;;;5100057;28;20194;-75
2022/01/17 06:03:56;;;;;;;48.37;21.87;;;3.40;84.40;;;;;;5101681;28;20231;-75
2022/01/17 06:06:24;;;;;;;68.60;37.33;;;3.30;84.40;;;;;;5099455;28;20196;-74
2022/01/17 06:08:53;;;;;;;55.37;30.73;;;3.30;84.40;;;;;;5101945;28;20187;-75
2022/01/17 06:11:21;;;;;;;39.37;19.93;;;3.30;84.40;;;;;;5100985;28;20197;-76
2022/01/17 06:13:49;;;;;;;40.97;18.37;;;3.30;84.30;;;;;;5100950;28;20222;-75
2022/01/17 06:16:17;;;;;;;42.03;19.23;;;3.30;84.40;;;;;;5098809;28;20198;-75
2022/01/17 06:18:46;;;;;;;36.80;19.57;;;3.30;84.40;;;;;;5101839;28;20188;-74
2022/01/17 06:21:16;;;;;;;38.33;19.07;;;3.30;84.20;;;;;;5102280;28;20189;-74
2022/01/17 06:23:44;;;;;;;41.10;18.83;;;3.30;84.10;;;;;;5099849;28;20199;-75
2022/01/17 06:26:12;;;;;;;45.07;20.07;;;3.30;84.10;;;;;;5100913;28;20196;-74
2022/01/17 06:28:41;;;;;;;42.97;20.23;;;3.30;84.20;;;;;;5100415;28;20200;-75
2022/01/17 06:31:09;;;;;;;45.50;20.03;;;3.20;84.10;;;;;;5099843;28;20228;-75
2022/01/17 06:33:37;;;;;;;46.60;19.40;;;3.20;84.10;;;;;;5099640;28;20221;-74
2022/01/17 06:36:06;;;;;;;39.93;19.53;;;3.20;84.10;;;;;;5102292;28;20217;-74
2022/01/17 06:38:36;;;;;;;39.87;20.30;;;3.10;84.40;;;;;;5098824;28;20194;-75
2022/01/17 06:41:05;;;;;;;36.30;18.53;;;3.10;84.20;;;;;;5099701;28;20449;-75
2022/01/17 06:43:33;;;;;;;38.03;19.30;;;3.10;84.40;;;;;;5098895;28;20189;-76
2022/01/17 06:46:01;;;;;;;41.67;18.53;;;3.10;84.40;;;;;;5099007;28;20228;-75
2022/01/17 06:48:30;;;;;;;39.37;18.13;;;3.10;84.50;;;;;;5100859;28;20245;-75
2022/01/17 06:50:58;;;;;;;36.33;17.47;;;3.10;84.60;;;;;;5101734;28;20202;-75
2022/01/17 06:53:27;;;;;;;39.77;18.00;;;3.00;84.70;;;;;;5100375;28;20702;-75
2022/01/17 06:55:57;;;;;;;40.03;18.20;;;3.00;84.90;;;;;;5104341;28;20198;-75
2022/01/17 06:58:25;;;;;;;39.50;17.93;;;3.00;85.80;;;;;;5104439;28;20191;-74
2022/01/17 07:00:54;;;;;;;38.53;18.20;;;3.10;85.10;;;;;;5097838;28;20443;-75
2022/01/17 07:03:23;;;;;;;36.13;17.53;;;3.10;85.20;;;;;;5108910;28;20318;-75
2022/01/17 07:05:51;;;;;;;31.37;15.67;;;3.20;85.30;;;;;;5108986;28;20851;-76
2022/01/17 07:08:20;;;;;;;35.50;17.53;;;3.10;85.40;;;;;;5103478;28;20708;-74
2022/01/17 07:10:48;;;;;;;31.40;16.40;;;3.20;85.50;;;;;;5105111;28;20270;-75
2022/01/17 07:13:18;;;;;;;32.50;16.13;;;3.30;85.50;;;;;;5106273;28;20320;-74
2022/01/17 07:15:47;;;;;;;36.28;18.73;;;3.30;85.40;;;;;;5104551;28;21215;-76
2022/01/17 07:18:15;;;;;;;27.20;15.07;;;3.40;85.40;;;;;;5108057;28;20191;-75
2022/01/17 07:20:47;;;;;;;26.73;13.93;;;3.40;85.20;;;;;;5105328;28;20192;-75
2022/01/17 07:23:17;;;;;;;32.20;15.00;;;3.40;84.80;;;;;;5107947;28;20194;-75
2022/01/17 07:25:45;;;;;;;34.03;14.63;;;3.50;85.00;;;;;;5106188;28;20189;-75
2022/01/17 07:28:14;;;;;;;32.10;17.27;;;3.60;84.70;;;;;;5105914;28;20499;-75
2022/01/17 07:30:45;;;;;;;27.43;15.73;;;3.60;84.40;;;;;;5106727;28;20191;-75
2022/01/17 07:33:13;;;;;;;27.00;13.77;;;3.60;83.80;;;;;;5102971;28;20218;-75
2022/01/17 07:35:44;;;;;;;32.00;15.40;;;3.70;83.80;;;;;;5104253;28;20239;-76
2022/01/17 07:38:13;;;;;;;27.93;14.43;;;3.70;83.90;;;;;;5100674;28;20190;-75
2022/01/17 07:40:43;;;;;;;28.67;13.93;;;3.70;83.80;;;;;;5105420;28;20187;-77
2022/01/17 07:43:11;;;;;;;24.57;13.57;;;3.70;83.60;;;;;;5102463;28;20211;-75
2022/01/17 07:46:02;;;;;;;23.93;13.10;;;3.70;83.80;;;;;;5103610;28;20269;-75
2022/01/17 07:48:56;;;;;;;25.60;13.97;;;3.80;84.00;;;;;;5105516;28;20180;-74
2022/01/17 07:51:28;;;;;;;29.23;13.20;;;3.80;84.00;;;;;;5104225;28;20182;-75
2022/01/17 07:53:57;;;;;;;27.80;14.90;;;3.90;83.80;;;;;;5104683;28;20229;-75
2022/01/17 07:56:25;;;;;;;28.60;14.33;;;3.90;83.90;;;;;;5103684;28;20192;-75
2022/01/17 07:58:54;;;;;;;26.23;13.93;;;4.00;83.90;;;;;;5102828;28;20202;-75
2022/01/17 08:01:24;;;;;;;30.53;14.17;;;4.00;83.90;;;;;;5101996;28;20185;-74
2022/01/17 08:03:52;;;;;;;27.20;13.63;;;4.10;83.80;;;;;;5103706;28;20196;-73
2022/01/17 08:06:20;;;;;;;31.57;13.40;;;4.10;83.60;;;;;;5102810;28;20201;-73
2022/01/17 08:08:49;;;;;;;28.27;13.67;;;4.20;83.70;;;;;;5103061;28;20197;-75
2022/01/17 08:11:17;;;;;;;27.10;12.30;;;4.30;83.60;;;;;;5105508;28;20188;-73
2022/01/17 08:13:46;;;;;;;22.63;11.73;;;4.40;83.60;;;;;;5105301;28;20220;-73
2022/01/17 08:16:14;;;;;;;25.73;13.20;;;4.50;83.00;;;;;;5097010;28;20192;-74
2022/01/17 08:18:44;;;;;;;22.20;12.60;;;4.60;83.10;;;;;;5101197;28;20693;-76
2022/01/17 08:21:13;;;;;;;21.27;11.20;;;4.70;82.60;;;;;;5105504;28;20241;-74
2022/01/17 08:23:41;;;;;;;23.03;11.57;;;4.80;82.20;;;;;;5098476;28;20204;-74
2022/01/17 08:26:09;;;;;;;23.30;11.47;;;4.90;82.60;;;;;;5098431;28;20597;-74
2022/01/17 08:28:38;;;;;;;26.00;11.57;;;5.00;81.80;;;;;;5104980;28;20189;-74
2022/01/17 08:31:06;;;;;;;22.63;12.47;;;5.10;81.60;;;;;;5096477;28;20584;-75
2022/01/17 08:33:48;;;;;;;19.40;10.87;;;5.10;80.70;;;;;;5101237;28;20201;-73
2022/01/17 08:36:19;;;;;;;19.73;10.43;;;5.20;80.50;;;;;;5096727;28;20306;-73
2022/01/17 08:38:47;;;;;;;22.27;11.30;;;5.30;80.50;;;;;;5103983;28;20193;-73
2022/01/17 08:41:19;;;;;;;25.17;11.40;;;5.50;80.30;;;;;;5100731;28;20803;-74
2022/01/17 08:43:47;;;;;;;20.53;10.30;;;5.50;79.90;;;;;;5101304;28;20193;-73
2022/01/17 08:46:16;;;;;;;18.93;10.03;;;5.60;79.30;;;;;;5097194;28;20185;-73
2022/01/17 08:48:44;;;;;;;20.67;10.90;;;5.70;79.30;;;;;;5105609;28;20233;-73
2022/01/17 08:51:14;;;;;;;24.53;10.10;;;5.80;79.00;;;;;;5101590;28;20185;-74
2022/01/17 08:53:42;;;;;;;24.57;9.83;;;5.90;78.70;;;;;;5099612;28;20316;-75
2022/01/17 08:56:11;;;;;;;16.87;8.93;;;5.90;78.30;;;;;;5101497;28;20738;-73
2022/01/17 08:58:39;;;;;;;21.60;10.53;;;6.00;78.00;;;;;;5097041;28;20305;-74
2022/01/17 09:01:08;;;;;;;16.73;8.63;;;6.10;77.60;;;;;;5102898;28;20242;-73
2022/01/17 09:03:37;;;;;;;16.60;9.00;;;6.20;76.20;;;;;;5104343;28;20281;-73
2022/01/17 09:06:05;;;;;;;16.63;8.87;;;6.30;76.50;;;;;;5094084;28;20636;-74
2022/01/17 09:08:35;;;;;;;26.03;9.20;;;6.40;76.20;;;;;;5101796;28;20181;-72
2022/01/17 09:11:03;;;;;;;17.67;8.90;;;6.40;75.70;;;;;;5103109;28;20250;-74
2022/01/17 09:13:31;;;;;;;16.03;9.00;;;6.50;75.60;;;;;;5103478;28;20190;-73
2022/01/17 09:16:00;;;;;;;24.33;9.77;;;6.50;75.40;;;;;;5098547;28;20194;-75
2022/01/17 09:18:28;;;;;;;19.40;8.40;;;6.60;75.00;;;;;;5093388;28;20215;-73
2022/01/17 09:20:57;;;;;;;25.53;8.83;;;6.70;74.70;;;;;;5099973;28;20198;-73
2022/01/17 09:23:25;;;;;;;22.20;8.70;;;6.70;74.30;;;;;;5101723;28;20276;-73
2022/01/17 09:25:55;;;;;;;20.43;8.50;;;6.80;74.10;;;;;;5100555;28;20187;-73
2022/01/17 09:28:24;;;;;;;23.23;9.23;;;6.90;74.20;;;;;;5102027;28;20228;-74
2022/01/17 09:30:52;;;;;;;16.97;8.63;;;7.00;74.70;;;;;;5102887;28;20202;-73
2022/01/17 09:33:21;;;;;;;15.00;8.60;;;7.10;73.90;;;;;;5099852;28;20223;-74
2022/01/17 09:35:49;;;;;;;17.57;8.37;;;7.10;72.80;;;;;;5093003;28;20220;-72
2022/01/17 09:38:18;;;;;;;18.50;7.90;;;7.20;72.40;;;;;;5099434;28;20195;-73
2022/01/17 09:40:47;;;;;;;29.33;9.80;;;7.30;72.50;;;;;;5100243;28;20224;-73
2022/01/17 09:43:37;;;;;;;17.27;8.53;;;7.40;72.80;;;;;;5102444;28;20312;-73
2022/01/17 09:46:07;;;;;;;24.97;9.37;;;7.50;73.00;;;;;;5100836;28;20182;-73
2022/01/17 09:48:38;;;;;;;16.47;8.53;;;7.60;72.80;;;;;;5102088;28;20668;-72
2022/01/17 09:51:18;;;;;;;20.50;8.30;;;7.70;72.10;;;;;;5101660;28;20179;-73
2022/01/17 09:53:47;;;;;;;15.63;8.03;;;7.70;72.10;;;;;;5095625;28;20232;-74
2022/01/17 09:56:16;;;;;;;14.93;7.93;;;7.80;71.60;;;;;;5099973;28;20204;-73
2022/01/17 09:58:45;;;;;;;16.30;8.73;;;7.90;71.80;;;;;;5094707;28;20197;-73
2022/01/17 10:01:14;;;;;;;42.57;10.83;;;7.90;71.10;;;;;;5104186;28;20193;-73
2022/01/17 10:03:43;;;;;;;15.83;8.00;;;8.00;71.10;;;;;;5102395;28;20185;-74
2022/01/17 10:06:11;;;;;;;18.53;8.33;;;8.10;71.10;;;;;;5095338;28;20181;-73
2022/01/17 10:08:39;;;;;;;14.60;8.57;;;8.30;71.00;;;;;;5100296;28;20196;-72
2022/01/17 10:11:14;;;;;;;19.10;7.83;;;8.40;70.70;;;;;;5097898;28;20381;-73
2022/01/17 10:13:45;;;;;;;17.63;7.93;;;8.50;69.20;;;;;;5103561;28;20195;-74
2022/01/17 10:16:16;;;;;;;16.30;7.23;;;8.50;68.30;;;;;;5104392;28;20224;-72
2022/01/17 10:18:48;;;;;;;15.47;7.17;;;8.60;68.00;;;;;;5105505;28;20170;-73
2022/01/17 10:21:29;;;;;;;17.13;7.97;;;8.70;68.50;;;;;;5102868;28;20177;-75
2022/01/17 10:27:05;;;;;;;15.23;7.23;;;8.90;67.40;;;;;;5091433;28;20194;-72
2022/01/17 10:35:23;;;;;;;10.83;5.90;;;9.10;65.80;;;;;;5103186;28;20371;-74
2022/01/17 10:38:04;;;;;;;14.60;6.80;;;9.20;65.20;;;;;;5105623;28;20197;-73
2022/01/17 10:40:36;;;;;;;13.50;6.90;;;9.30;64.80;;;;;;5098094;28;20197;-73
2022/01/17 10:43:06;;;;;;;11.33;6.57;;;9.40;64.70;;;;;;5102508;28;20185;-74
2022/01/17 10:45:41;;;;;;;14.37;6.97;;;9.50;64.90;;;;;;5100269;28;20186;-73
2022/01/17 10:48:10;;;;;;;13.80;7.43;;;9.60;65.50;;;;;;5106946;28;20227;-73
2022/01/17 10:50:40;;;;;;;15.37;7.23;;;9.70;65.40;;;;;;5105217;28;20637;-75
2022/01/17 10:53:12;;;;;;;13.33;6.93;;;9.80;64.70;;;;;;5106783;28;20706;-73
2022/01/17 10:55:44;;;;;;;12.13;6.53;;;9.80;64.50;;;;;;5106607;28;20201;-73
2022/01/17 10:58:15;;;;;;;13.93;6.93;;;9.90;64.30;;;;;;5104665;28;20193;-78
2022/01/17 11:00:47;;;;;;;15.77;6.73;;;10.00;64.10;;;;;;5106005;28;20204;-75
2022/01/17 11:03:17;;;;;;;14.27;6.23;;;10.00;63.50;;;;;;5106561;28;20180;-74
2022/01/17 11:05:48;;;;;;;13.27;6.43;;;10.10;63.80;;;;;;5104604;28;20238;-75
2022/01/17 11:08:19;;;;;;;18.97;7.43;;;10.10;63.50;;;;;;5104810;28;20730;-74
2022/01/17 11:10:50;;;;;;;13.73;6.17;;;10.30;64.40;;;;;;5105379;28;20185;-75
2022/01/17 11:13:20;;;;;;;15.07;6.40;;;10.30;63.40;;;;;;5097972;28;20178;-75
2022/01/17 11:15:54;;;;;;;11.37;6.67;;;10.40;63.90;;;;;;5105528;28;20221;-75
2022/01/17 11:18:26;;;;;;;14.13;6.90;;;10.50;64.00;;;;;;5094737;28;20265;-76
2022/01/17 11:20:57;;;;;;;11.53;5.40;;;10.50;64.80;;;;;;5098200;28;20186;-76
2022/01/17 11:23:26;;;;;;;31.70;12.93;;;10.60;63.80;;;;;;5100047;28;20190;-76
2022/01/17 11:25:57;;;;;;;12.03;6.50;;;10.70;63.60;;;;;;5094728;28;20197;-75
2022/01/17 11:28:28;;;;;;;15.23;6.73;;;10.70;63.40;;;;;;5105216;28;20189;-75
2022/01/17 11:31:06;;;;;;;13.43;5.97;;;10.80;64.10;;;;;;5102983;28;20195;-75
2022/01/17 11:33:35;;;;;;;17.13;6.93;;;10.80;63.70;;;;;;5103662;28;21721;-74
2022/01/17 11:36:04;;;;;;;10.83;5.80;;;10.90;63.90;;;;;;5098555;28;20286;-74
2022/01/17 11:38:35;;;;;;;14.53;5.83;;;10.90;63.90;;;;;;5103899;28;20279;-74
2022/01/17 11:41:05;;;;;;;24.93;8.13;;;10.90;63.80;;;;;;5104711;28;20196;-74
2022/01/17 11:43:37;;;;;;;12.03;6.30;;;11.00;64.10;;;;;;5104489;28;20715;-76
2022/01/17 11:46:26;;;;;;;12.60;6.13;;;11.00;64.30;;;;;;5104002;28;20280;-76
2022/01/17 11:48:58;;;;;;;13.87;6.27;;;11.10;64.30;;;;;;5105417;28;20188;-73
2022/01/17 11:51:39;;;;;;;15.40;6.20;;;11.10;64.50;;;;;;5103872;28;20961;-77
2022/01/17 11:54:12;;;;;;;14.27;6.27;;;11.10;64.40;;;;;;5104830;28;20377;-74
2022/01/17 11:56:50;;;;;;;18.37;5.97;;;11.10;64.40;;;;;;5101652;28;20205;-74
2022/01/17 11:59:41;;;;;;;15.73;5.13;;;11.20;63.80;;;;;;5096987;28;20201;-74
2022/01/17 12:02:32;;;;;;;13.83;5.70;;;11.10;63.40;;;;;;5104986;28;20193;-72
2022/01/17 12:05:36;;;;;;;11.30;6.17;;;11.20;63.50;;;;;;5096621;28;20237;-73
2022/01/17 12:08:09;;;;;;;13.17;5.20;;;11.20;63.40;;;;;;5073582;28;20578;-73
2022/01/17 12:10:53;;;;;;;10.67;5.70;;;11.20;63.60;;;;;;5105059;28;20776;-72
2022/01/17 12:13:41;;;;;;;15.00;6.20;;;11.20;64.60;;;;;;5104426;28;20628;-76
2022/01/17 12:16:14;;;;;;;15.93;6.30;;;11.20;65.20;;;;;;5099538;28;20212;-75
2022/01/17 12:18:48;;;;;;;11.83;6.27;;;11.20;65.60;;;;;;5103416;28;20266;-74
2022/01/17 12:21:30;;;;;;;11.57;6.23;;;11.20;65.80;;;;;;5104811;28;20638;-76
2022/01/17 12:24:29;;;;;;;14.20;6.60;;;11.20;65.90;;;;;;5103940;28;20182;-75
2022/01/17 12:27:20;;;;;;;12.93;6.47;;;11.20;65.90;;;;;;5100614;28;20181;-73
2022/01/17 12:30:05;;;;;;;13.03;6.87;;;11.10;66.10;;;;;;5093710;28;20272;-73
2022/01/17 12:32:50;;;;;;;16.23;6.40;;;11.20;66.50;;;;;;5095531;28;20193;-74
2022/01/17 12:35:31;;;;;;;12.47;6.23;;;11.20;66.60;;;;;;5091961;28;20267;-74
2022/01/17 12:38:09;;;;;;;13.33;6.47;;;11.30;66.70;;;;;;5104491;28;20196;-73
2022/01/17 12:40:56;;;;;;;10.67;5.77;;;11.40;66.80;;;;;;5091998;28;20273;-73
2022/01/17 12:43:31;;;;;;;13.87;6.60;;;11.40;66.60;;;;;;5102280;28;20823;-72
2022/01/17 12:46:03;;;;;;;13.50;6.20;;;11.40;66.50;;;;;;5103708;28;20801;-74
2022/01/17 12:48:33;;;;;;;15.13;6.00;;;11.40;66.30;;;;;;5104384;28;20189;-74
2022/01/17 12:51:07;;;;;;;10.70;5.93;;;11.50;66.30;;;;;;5104261;28;20224;-74
2022/01/17 12:53:35;;;;;;;17.90;6.57;;;11.60;66.30;;;;;;5098976;28;20357;-73
2022/01/17 12:56:06;;;;;;;11.53;6.33;;;11.60;66.10;;;;;;5098629;28;20220;-73
2022/01/17 12:58:36;;;;;;;13.30;5.17;;;11.70;66.00;;;;;;5104578;28;20587;-74
2022/01/17 13:01:07;;;;;;;10.00;5.10;;;11.70;65.80;;;;;;5101571;28;20196;-74
2022/01/17 13:03:37;;;;;;;9.53;5.17;;;11.70;64.90;;;;;;5100824;28;20539;-74
2022/01/17 13:06:10;;;;;;;11.73;4.63;;;11.70;63.90;;;;;;5090934;28;20189;-73
2022/01/17 13:08:42;;;;;;;6.97;3.67;;;11.80;63.80;;;;;;5099513;28;20819;-73
2022/01/17 13:11:13;;;;;;;7.97;3.97;;;11.90;64.00;;;;;;5101625;28;20639;-78
2022/01/17 13:13:46;;;;;;;7.30;3.40;;;11.90;63.60;;;;;;5104496;28;20185;-73